sensor_id;sensor_type;location;lat;lon;timestamp;P1;durP1;ratioP1;P2;durP2;ratioP2
45107;SDS011;30869;51.188;6.556;2022-11-04T05:57:20;0.95;;;0.82;;
45107;SDS011;30869;51.188;6.556;2022-11-04T06:00:29;2.28;;;1.10;;
45107;SDS011;30869;51.188;6.556;2022-11-04T06:03:36;2.08;;;1.25;;
45107;SDS011;30869;51.188;6.556;2022-11-04T06:06:15;2.28;;;1.10;;
45107;SDS011;30869;51.188;6.556;2022-11-04T06:09:18;1.45;;;1.05;;
45107;SDS011;30869;51.188;6.556;2022-11-04T06:12:08;1.30;;;1.20;;
45107;SDS011;30869;51.188;6.556;2022-11-04T06:15:03;2.60;;;1.15;;
45107;SDS011;30869;51.188;6.556;2022-11-04T06:17:44;1.15;;;0.90;;
45107;SDS011;30869;51.188;6.556;2022-11-04T06:20:22;1.48;;;1.02;;
45107;SDS011;30869;51.188;6.556;2022-11-04T06:23:23;5.55;;;1.33;;
45107;SDS011;30869;51.188;6.556;2022-11-04T06:25:53;3.35;;;1.10;;
45107;SDS011;30869;51.188;6.556;2022-11-04T06:28:19;2.05;;;1.33;;
45107;SDS011;30869;51.188;6.556;2022-11-04T06:30:47;1.65;;;1.02;;
45107;SDS011;30869;51.188;6.556;2022-11-04T06:33:15;1.55;;;1.10;;
45107;SDS011;30869;51.188;6.556;2022-11-04T06:35:47;1.50;;;0.98;;
45107;SDS011;30869;51.188;6.556;2022-11-04T06:38:16;0.98;;;0.88;;
45107;SDS011;30869;51.188;6.556;2022-11-04T06:40:48;6.03;;;1.02;;
45107;SDS011;30869;51.188;6.556;2022-11-04T06:43:43;2.88;;;2.30;;
45107;SDS011;30869;51.188;6.556;2022-11-04T06:49:02;1.13;;;0.95;;
45107;SDS011;30869;51.188;6.556;2022-11-04T06:51:29;3.08;;;1.00;;
45107;SDS011;30869;51.188;6.556;2022-11-04T06:53:55;3.97;;;1.20;;
45107;SDS011;30869;51.188;6.556;2022-11-04T06:56:21;10.35;;;1.88;;
45107;SDS011;30869;51.188;6.556;2022-11-04T06:58:47;4.00;;;1.55;;
45107;SDS011;30869;51.188;6.556;2022-11-04T07:01:17;6.47;;;1.55;;
45107;SDS011;30869;51.188;6.556;2022-11-04T07:04:02;7.88;;;1.77;;
45107;SDS011;30869;51.188;6.556;2022-11-04T07:06:50;6.38;;;2.25;;
45107;SDS011;30869;51.188;6.556;2022-11-04T07:09:42;4.88;;;1.80;;
45107;SDS011;30869;51.188;6.556;2022-11-04T07:12:30;3.75;;;1.45;;
45107;SDS011;30869;51.188;6.556;2022-11-04T07:14:56;10.50;;;2.28;;
45107;SDS011;30869;51.188;6.556;2022-11-04T07:17:35;8.10;;;2.20;;
45107;SDS011;30869;51.188;6.556;2022-11-04T07:20:02;11.48;;;2.10;;
45107;SDS011;30869;51.188;6.556;2022-11-04T07:22:56;8.18;;;2.20;;
45107;SDS011;30869;51.188;6.556;2022-11-04T07:25:52;8.48;;;1.52;;
45107;SDS011;30869;51.188;6.556;2022-11-04T07:28:29;9.75;;;1.98;;
45107;SDS011;30869;51.188;6.556;2022-11-04T07:34:20;6.97;;;2.00;;
45107;SDS011;30869;51.188;6.556;2022-11-04T07:36:56;2.42;;;1.20;;
45107;SDS011;30869;51.188;6.556;2022-11-04T07:39:22;12.05;;;2.22;;
45107;SDS011;30869;51.188;6.556;2022-11-04T07:41:48;8.68;;;1.63;;
45107;SDS011;30869;51.188;6.556;2022-11-04T07:44:13;13.38;;;2.30;;
45107;SDS011;30869;51.188;6.556;2022-11-04T07:46:39;11.90;;;2.42;;
45107;SDS011;30869;51.188;6.556;2022-11-04T07:49:05;5.50;;;2.05;;
45107;SDS011;30869;51.188;6.556;2022-11-04T07:51:32;9.25;;;1.92;;
45107;SDS011;30869;51.188;6.556;2022-11-04T07:53:58;11.60;;;1.95;;
45107;SDS011;30869;51.188;6.556;2022-11-04T07:56:25;5.05;;;1.92;;
45107;SDS011;30869;51.188;6.556;2022-11-04T07:58:51;12.23;;;2.40;;
45107;SDS011;30869;51.188;6.556;2022-11-04T08:01:18;8.07;;;1.95;;
45107;SDS011;30869;51.188;6.556;2022-11-04T08:03:47;6.75;;;1.77;;
45107;SDS011;30869;51.188;6.556;2022-11-04T08:06:14;3.47;;;1.30;;
45107;SDS011;30869;51.188;6.556;2022-11-04T08:08:42;7.28;;;1.98;;
45107;SDS011;30869;51.188;6.556;2022-11-04T08:11:09;8.35;;;2.05;;
45107;SDS011;30869;51.188;6.556;2022-11-04T08:13:37;10.52;;;2.20;;
45107;SDS011;30869;51.188;6.556;2022-11-04T08:16:03;8.90;;;1.77;;
45107;SDS011;30869;51.188;6.556;2022-11-04T08:18:32;13.10;;;2.45;;
45107;SDS011;30869;51.188;6.556;2022-11-04T08:20:58;6.65;;;2.88;;
45107;SDS011;30869;51.188;6.556;2022-11-04T08:23:24;5.47;;;2.15;;
45107;SDS011;30869;51.188;6.556;2022-11-04T08:25:50;6.65;;;1.73;;
45107;SDS011;30869;51.188;6.556;2022-11-04T08:28:16;9.23;;;2.17;;
45107;SDS011;30869;51.188;6.556;2022-11-04T08:31:02;8.90;;;2.10;;
45107;SDS011;30869;51.188;6.556;2022-11-04T08:33:30;2.92;;;1.52;;
45107;SDS011;30869;51.188;6.556;2022-11-04T08:35:59;5.05;;;2.05;;
45107;SDS011;30869;51.188;6.556;2022-11-04T08:38:26;5.22;;;1.52;;
45107;SDS011;30869;51.188;6.556;2022-11-04T08:40:55;8.13;;;1.75;;
45107;SDS011;30869;51.188;6.556;2022-11-04T08:43:22;5.40;;;1.83;;
45107;SDS011;30869;51.188;6.556;2022-11-04T08:45:48;4.53;;;1.85;;
45107;SDS011;30869;51.188;6.556;2022-11-04T08:48:14;7.13;;;1.80;;
45107;SDS011;30869;51.188;6.556;2022-11-04T08:50:40;7.10;;;1.77;;
45107;SDS011;30869;51.188;6.556;2022-11-04T08:53:07;9.27;;;1.67;;
45107;SDS011;30869;51.188;6.556;2022-11-04T08:55:33;8.60;;;2.03;;
45107;SDS011;30869;51.188;6.556;2022-11-04T08:57:59;2.15;;;1.17;;
45107;SDS011;30869;51.188;6.556;2022-11-04T09:00:25;6.50;;;2.08;;
45107;SDS011;30869;51.188;6.556;2022-11-04T09:02:51;4.88;;;1.50;;
45107;SDS011;30869;51.188;6.556;2022-11-04T09:05:19;5.13;;;1.70;;
45107;SDS011;30869;51.188;6.556;2022-11-04T09:07:45;1.35;;;1.20;;
45107;SDS011;30869;51.188;6.556;2022-11-04T09:10:11;2.08;;;1.35;;
45107;SDS011;30869;51.188;6.556;2022-11-04T09:12:37;4.97;;;1.83;;
45107;SDS011;30869;51.188;6.556;2022-11-04T09:15:03;4.50;;;1.42;;
45107;SDS011;30869;51.188;6.556;2022-11-04T09:17:32;4.80;;;1.45;;
45107;SDS011;30869;51.188;6.556;2022-11-04T09:19:58;3.28;;;1.67;;
45107;SDS011;30869;51.188;6.556;2022-11-04T09:22:24;5.15;;;2.15;;
45107;SDS011;30869;51.188;6.556;2022-11-04T09:24:50;6.90;;;2.40;;
45107;SDS011;30869;51.188;6.556;2022-11-04T09:27:16;7.70;;;2.55;;
45107;SDS011;30869;51.188;6.556;2022-11-04T09:29:42;12.80;;;2.67;;
45107;SDS011;30869;51.188;6.556;2022-11-04T09:32:08;10.70;;;2.38;;
45107;SDS011;30869;51.188;6.556;2022-11-04T09:34:34;8.48;;;1.60;;
45107;SDS011;30869;51.188;6.556;2022-11-04T09:36:59;3.05;;;1.40;;
45107;SDS011;30869;51.188;6.556;2022-11-04T09:39:26;4.85;;;1.95;;
45107;SDS011;30869;51.188;6.556;2022-11-04T09:44:26;9.25;;;2.50;;
45107;SDS011;30869;51.188;6.556;2022-11-04T09:47:07;3.95;;;1.50;;
45107;SDS011;30869;51.188;6.556;2022-11-04T09:49:35;3.90;;;1.45;;
45107;SDS011;30869;51.188;6.556;2022-11-04T09:52:12;3.20;;;1.38;;
45107;SDS011;30869;51.188;6.556;2022-11-04T09:57:55;2.33;;;1.27;;
45107;SDS011;30869;51.188;6.556;2022-11-04T10:00:22;5.25;;;1.42;;
45107;SDS011;30869;51.188;6.556;2022-11-04T10:13:22;1.60;;;1.10;;
45107;SDS011;30869;51.188;6.556;2022-11-04T10:21:46;2.95;;;1.92;;
45107;SDS011;30869;51.188;6.556;2022-11-04T10:24:39;4.55;;;1.50;;
45107;SDS011;30869;51.188;6.556;2022-11-04T10:27:25;1.85;;;1.23;;
45107;SDS011;30869;51.188;6.556;2022-11-04T10:32:25;1.58;;;1.30;;
45107;SDS011;30869;51.188;6.556;2022-11-04T10:35:03;9.32;;;2.33;;
45107;SDS011;30869;51.188;6.556;2022-11-04T10:37:39;8.00;;;1.73;;
45107;SDS011;30869;51.188;6.556;2022-11-04T10:40:16;1.98;;;1.23;;
45107;SDS011;30869;51.188;6.556;2022-11-04T10:42:50;6.95;;;1.80;;
45107;SDS011;30869;51.188;6.556;2022-11-04T10:45:18;2.33;;;1.33;;
45107;SDS011;30869;51.188;6.556;2022-11-04T10:47:49;8.50;;;1.83;;
45107;SDS011;30869;51.188;6.556;2022-11-04T10:50:29;5.93;;;1.40;;
45107;SDS011;30869;51.188;6.556;2022-11-04T10:58:22;13.85;;;1.63;;
45107;SDS011;30869;51.188;6.556;2022-11-04T11:00:53;4.38;;;1.38;;
45107;SDS011;30869;51.188;6.556;2022-11-04T11:03:30;16.08;;;2.38;;
45107;SDS011;30869;51.188;6.556;2022-11-04T11:09:11;5.40;;;1.17;;
45107;SDS011;30869;51.188;6.556;2022-11-04T11:11:46;15.65;;;2.30;;
45107;SDS011;30869;51.188;6.556;2022-11-04T11:14:36;4.18;;;1.63;;
45107;SDS011;30869;51.188;6.556;2022-11-04T11:19:52;1.52;;;1.10;;
45107;SDS011;30869;51.188;6.556;2022-11-04T11:22:26;4.45;;;1.73;;
45107;SDS011;30869;51.188;6.556;2022-11-04T11:27:40;1.67;;;1.08;;
45107;SDS011;30869;51.188;6.556;2022-11-04T11:30:19;11.35;;;2.35;;
45107;SDS011;30869;51.188;6.556;2022-11-04T11:32:54;8.18;;;1.58;;
45107;SDS011;30869;51.188;6.556;2022-11-04T11:35:38;12.70;;;2.35;;
45107;SDS011;30869;51.188;6.556;2022-11-04T11:38:49;7.40;;;1.83;;
45107;SDS011;30869;51.188;6.556;2022-11-04T11:41:06;2.33;;;0.93;;
45107;SDS011;30869;51.188;6.556;2022-11-04T11:43:35;4.43;;;1.95;;
45107;SDS011;30869;51.188;6.556;2022-11-04T11:46:08;14.35;;;2.58;;
45107;SDS011;30869;51.188;6.556;2022-11-04T11:48:39;6.50;;;1.67;;
45107;SDS011;30869;51.188;6.556;2022-11-04T11:51:11;10.90;;;1.90;;
45107;SDS011;30869;51.188;6.556;2022-11-04T11:53:37;10.95;;;2.55;;
45107;SDS011;30869;51.188;6.556;2022-11-04T12:01:41;3.25;;;1.48;;
45107;SDS011;30869;51.188;6.556;2022-11-04T12:04:14;20.20;;;2.35;;
45107;SDS011;30869;51.188;6.556;2022-11-04T12:12:15;14.57;;;3.10;;
45107;SDS011;30869;51.188;6.556;2022-11-04T12:23:48;5.07;;;1.25;;
45107;SDS011;30869;51.188;6.556;2022-11-04T12:42:22;10.23;;;2.03;;
45107;SDS011;30869;51.188;6.556;2022-11-04T12:45:31;15.35;;;2.42;;
45107;SDS011;30869;51.188;6.556;2022-11-04T12:48:17;14.90;;;2.50;;
45107;SDS011;30869;51.188;6.556;2022-11-04T12:51:16;2.35;;;1.67;;
45107;SDS011;30869;51.188;6.556;2022-11-04T12:56:44;1.15;;;0.98;;
45107;SDS011;30869;51.188;6.556;2022-11-04T13:02:15;6.70;;;1.80;;
45107;SDS011;30869;51.188;6.556;2022-11-04T13:05:05;2.35;;;1.10;;
45107;SDS011;30869;51.188;6.556;2022-11-04T13:10:52;2.55;;;1.15;;
45107;SDS011;30869;51.188;6.556;2022-11-04T13:13:31;15.85;;;3.38;;
45107;SDS011;30869;51.188;6.556;2022-11-04T13:16:02;2.08;;;1.27;;
45107;SDS011;30869;51.188;6.556;2022-11-04T13:18:34;1.73;;;1.15;;
45107;SDS011;30869;51.188;6.556;2022-11-04T13:21:14;1.33;;;0.95;;
45107;SDS011;30869;51.188;6.556;2022-11-04T13:23:58;7.35;;;2.28;;
45107;SDS011;30869;51.188;6.556;2022-11-04T13:26:29;12.68;;;2.75;;
45107;SDS011;30869;51.188;6.556;2022-11-04T13:28:57;3.45;;;1.40;;
45107;SDS011;30869;51.188;6.556;2022-11-04T13:37:26;8.05;;;2.53;;
45107;SDS011;30869;51.188;6.556;2022-11-04T13:49:29;10.95;;;2.67;;
45107;SDS011;30869;51.188;6.556;2022-11-04T13:52:02;3.00;;;1.45;;
45107;SDS011;30869;51.188;6.556;2022-11-04T13:57:27;1.88;;;1.17;;
45107;SDS011;30869;51.188;6.556;2022-11-04T14:00:18;2.75;;;1.48;;
45107;SDS011;30869;51.188;6.556;2022-11-04T14:16:05;6.43;;;1.88;;
45107;SDS011;30869;51.188;6.556;2022-11-04T14:22:14;2.88;;;1.60;;
45107;SDS011;30869;51.188;6.556;2022-11-04T14:24:41;3.58;;;1.77;;
45107;SDS011;30869;51.188;6.556;2022-11-04T14:36:16;19.95;;;4.00;;
45107;SDS011;30869;51.188;6.556;2022-11-04T14:39:19;8.23;;;1.73;;
45107;SDS011;30869;51.188;6.556;2022-11-04T14:42:04;2.97;;;1.38;;
45107;SDS011;30869;51.188;6.556;2022-11-04T14:47:18;6.70;;;2.13;;
45107;SDS011;30869;51.188;6.556;2022-11-04T14:52:37;2.00;;;1.17;;
45107;SDS011;30869;51.188;6.556;2022-11-04T15:10:26;3.57;;;1.37;;
45107;SDS011;30869;51.188;6.556;2022-11-04T15:37:19;13.02;;;2.30;;
45107;SDS011;30869;51.188;6.556;2022-11-04T15:39:47;13.02;;;2.53;;
45107;SDS011;30869;51.188;6.556;2022-11-04T15:42:20;17.20;;;3.30;;
45107;SDS011;30869;51.188;6.556;2022-11-04T15:48:27;7.00;;;1.90;;
45107;SDS011;30869;51.188;6.556;2022-11-04T15:53:46;4.93;;;1.80;;
45107;SDS011;30869;51.188;6.556;2022-11-04T15:56:26;14.15;;;3.35;;
45107;SDS011;30869;51.188;6.556;2022-11-04T15:59:27;9.35;;;3.00;;
45107;SDS011;30869;51.188;6.556;2022-11-04T16:02:01;18.17;;;3.97;;
45107;SDS011;30869;51.188;6.556;2022-11-04T16:04:28;15.50;;;3.58;;
45107;SDS011;30869;51.188;6.556;2022-11-04T16:09:45;15.32;;;3.80;;
45107;SDS011;30869;51.188;6.556;2022-11-04T16:12:24;9.73;;;3.95;;
45107;SDS011;30869;51.188;6.556;2022-11-04T16:14:55;5.07;;;2.25;;
45107;SDS011;30869;51.188;6.556;2022-11-04T16:17:25;4.50;;;1.30;;
45107;SDS011;30869;51.188;6.556;2022-11-04T16:20:02;13.48;;;5.25;;
45107;SDS011;30869;51.188;6.556;2022-11-04T16:22:33;3.47;;;1.83;;
45107;SDS011;30869;51.188;6.556;2022-11-04T16:25:04;8.38;;;3.63;;
45107;SDS011;30869;51.188;6.556;2022-11-04T16:27:32;9.90;;;3.33;;
45107;SDS011;30869;51.188;6.556;2022-11-04T16:33:06;1.85;;;1.30;;
45107;SDS011;30869;51.188;6.556;2022-11-04T16:35:56;4.15;;;1.75;;
45107;SDS011;30869;51.188;6.556;2022-11-04T16:38:58;15.63;;;5.28;;
45107;SDS011;30869;51.188;6.556;2022-11-04T16:41:38;11.77;;;2.65;;
45107;SDS011;30869;51.188;6.556;2022-11-04T16:44:14;3.10;;;2.45;;
45107;SDS011;30869;51.188;6.556;2022-11-04T16:46:44;23.88;;;5.35;;
45107;SDS011;30869;51.188;6.556;2022-11-04T16:49:16;11.57;;;3.88;;
45107;SDS011;30869;51.188;6.556;2022-11-04T16:51:43;8.95;;;3.65;;
45107;SDS011;30869;51.188;6.556;2022-11-04T16:54:09;14.80;;;4.50;;
45107;SDS011;30869;51.188;6.556;2022-11-04T16:56:46;13.27;;;6.20;;
45107;SDS011;30869;51.188;6.556;2022-11-04T17:01:59;13.43;;;4.28;;
45107;SDS011;30869;51.188;6.556;2022-11-04T17:04:34;8.27;;;4.10;;
45107;SDS011;30869;51.188;6.556;2022-11-04T17:07:00;3.90;;;2.17;;
45107;SDS011;30869;51.188;6.556;2022-11-04T17:09:26;20.17;;;8.98;;
45107;SDS011;30869;51.188;6.556;2022-11-04T17:11:55;7.32;;;3.80;;
45107;SDS011;30869;51.188;6.556;2022-11-04T17:14:27;16.65;;;5.50;;
45107;SDS011;30869;51.188;6.556;2022-11-04T17:16:59;17.85;;;7.47;;
45107;SDS011;30869;51.188;6.556;2022-11-04T17:19:29;19.27;;;8.23;;
45107;SDS011;30869;51.188;6.556;2022-11-04T17:22:09;23.15;;;9.07;;
45107;SDS011;30869;51.188;6.556;2022-11-04T17:24:48;16.27;;;7.13;;
45107;SDS011;30869;51.188;6.556;2022-11-04T17:33:35;17.98;;;8.00;;
45107;SDS011;30869;51.188;6.556;2022-11-04T17:36:01;16.95;;;7.95;;
45107;SDS011;30869;51.188;6.556;2022-11-04T17:39:03;19.85;;;7.50;;
45107;SDS011;30869;51.188;6.556;2022-11-04T17:41:58;14.07;;;6.60;;
45107;SDS011;30869;51.188;6.556;2022-11-04T17:44:55;24.23;;;9.60;;
45107;SDS011;30869;51.188;6.556;2022-11-04T17:47:28;16.70;;;8.38;;
45107;SDS011;30869;51.188;6.556;2022-11-04T17:50:29;31.20;;;11.55;;
45107;SDS011;30869;51.188;6.556;2022-11-04T17:53:13;28.83;;;11.85;;
45107;SDS011;30869;51.188;6.556;2022-11-04T17:55:56;10.93;;;5.47;;
45107;SDS011;30869;51.188;6.556;2022-11-04T17:58:56;23.08;;;11.52;;
45107;SDS011;30869;51.188;6.556;2022-11-04T18:01:28;14.38;;;8.88;;
45107;SDS011;30869;51.188;6.556;2022-11-04T18:04:15;10.52;;;5.70;;
45107;SDS011;30869;51.188;6.556;2022-11-04T18:07:01;17.67;;;8.65;;
45107;SDS011;30869;51.188;6.556;2022-11-04T18:09:45;10.68;;;5.53;;
45107;SDS011;30869;51.188;6.556;2022-11-04T18:13:34;12.05;;;5.47;;
45107;SDS011;30869;51.188;6.556;2022-11-04T18:17:10;12.45;;;5.13;;
45107;SDS011;30869;51.188;6.556;2022-11-04T18:21:05;20.52;;;10.00;;
45107;SDS011;30869;51.188;6.556;2022-11-04T18:23:46;19.13;;;11.32;;
45107;SDS011;30869;51.188;6.556;2022-11-04T18:26:29;10.20;;;4.80;;
45107;SDS011;30869;51.188;6.556;2022-11-04T18:29:36;28.92;;;13.23;;
45107;SDS011;30869;51.188;6.556;2022-11-04T18:32:09;12.48;;;5.55;;
45107;SDS011;30869;51.188;6.556;2022-11-04T18:34:37;26.10;;;11.45;;
45107;SDS011;30869;51.188;6.556;2022-11-04T18:37:32;32.47;;;15.55;;
45107;SDS011;30869;51.188;6.556;2022-11-04T18:40:42;19.40;;;12.05;;
45107;SDS011;30869;51.188;6.556;2022-11-04T18:43:11;36.15;;;16.90;;
45107;SDS011;30869;51.188;6.556;2022-11-04T18:45:46;30.67;;;16.33;;
45107;SDS011;30869;51.188;6.556;2022-11-04T18:49:06;37.75;;;15.45;;
45107;SDS011;30869;51.188;6.556;2022-11-04T18:52:35;43.40;;;18.75;;
45107;SDS011;30869;51.188;6.556;2022-11-04T18:55:25;38.50;;;19.00;;
45107;SDS011;30869;51.188;6.556;2022-11-04T18:58:15;36.35;;;19.45;;
45107;SDS011;30869;51.188;6.556;2022-11-04T19:00:56;34.10;;;18.52;;
45107;SDS011;30869;51.188;6.556;2022-11-04T19:03:49;35.05;;;17.80;;
45107;SDS011;30869;51.188;6.556;2022-11-04T19:06:43;13.10;;;8.82;;
45107;SDS011;30869;51.188;6.556;2022-11-04T19:21:48;11.43;;;6.40;;
45107;SDS011;30869;51.188;6.556;2022-11-04T19:24:19;30.17;;;16.67;;
45107;SDS011;30869;51.188;6.556;2022-11-04T19:27:22;12.23;;;7.45;;
45107;SDS011;30869;51.188;6.556;2022-11-04T19:30:14;6.78;;;4.60;;
45107;SDS011;30869;51.188;6.556;2022-11-04T19:32:52;5.95;;;4.55;;
45107;SDS011;30869;51.188;6.556;2022-11-04T19:35:37;7.15;;;4.68;;
45107;SDS011;30869;51.188;6.556;2022-11-04T19:38:13;9.52;;;5.10;;
45107;SDS011;30869;51.188;6.556;2022-11-04T19:40:49;26.98;;;15.10;;
45107;SDS011;30869;51.188;6.556;2022-11-04T19:43:23;31.35;;;16.17;;
45107;SDS011;30869;51.188;6.556;2022-11-04T19:49:15;7.80;;;4.68;;
45107;SDS011;30869;51.188;6.556;2022-11-04T19:51:46;8.23;;;4.95;;
45107;SDS011;30869;51.188;6.556;2022-11-04T19:54:19;21.30;;;12.68;;
45107;SDS011;30869;51.188;6.556;2022-11-04T19:56:46;32.83;;;17.55;;
45107;SDS011;30869;51.188;6.556;2022-11-04T19:59:21;32.92;;;18.75;;
45107;SDS011;30869;51.188;6.556;2022-11-04T21:08:27;27.77;;;13.68;;
